Weather at La Fria Airport

Public forecast

Using degrees Celsius for public forecast. Weather courtesy of forecast.io.

Current aviation weather report (METAR) for La Fria Airport

Report is more than 6 hours old.

Retrieved 2020/05/30 14:00 UTC (6 months ago):

SVLF 301400Z ///// 9999 BKN030 Q1015

Closest aviation forecast (TAF) to La Fria Airport

Forecast is more than 6 hours old.

Closest forecast is Camilo Daza International Airport, 23.5 nm (43.6 km) SW. Retrieved 2020/11/28 18:42 UTC (9 hours ago):

TAF SKCC 281630Z 2818/2918 36010KT 9999 SCT018 SCT080 TEMPO 2819/2824 5000 TSRA SCT017CB BECMG 2902/2904 VRB03KT PROB40 TEMPO 2909/2913 5000 DZ BCFG BKN008 TX29/2818Z TN22/2910Z